createdAt,value
2018-04-30T00:00:05.016Z,62.06
2018-04-30T00:01:05.491Z,62.00
2018-04-30T00:02:05.962Z,62.03
2018-04-30T00:03:06.437Z,62.09
2018-04-30T00:04:06.908Z,62.05
2018-04-30T00:05:07.383Z,62.02
2018-04-30T00:06:07.856Z,61.99
2018-04-30T00:07:08.328Z,61.91
2018-04-30T00:08:08.808Z,61.94
2018-04-30T00:09:09.276Z,62.04
2018-04-30T00:10:09.748Z,62.13
2018-04-30T00:11:10.224Z,62.10
2018-04-30T00:12:10.697Z,62.21
2018-04-30T00:13:11.170Z,62.12
2018-04-30T00:14:11.642Z,62.12
2018-04-30T00:15:12.120Z,62.15
2018-04-30T00:16:12.591Z,62.06
2018-04-30T00:17:13.067Z,62.06
2018-04-30T00:18:13.540Z,61.97
2018-04-30T00:19:14.015Z,61.95
2018-04-30T00:20:14.488Z,61.89
2018-04-30T00:21:14.963Z,61.89
2018-04-30T00:22:15.438Z,61.86
2018-04-30T00:23:15.910Z,61.77
2018-04-30T00:24:16.386Z,61.69
2018-04-30T00:25:16.859Z,61.68
2018-04-30T00:26:17.335Z,61.60
2018-04-30T00:27:17.809Z,61.60
2018-04-30T00:28:18.283Z,61.63
2018-04-30T00:29:18.755Z,61.65
2018-04-30T00:30:19.230Z,61.62
2018-04-30T00:31:19.704Z,61.65
2018-04-30T00:32:20.176Z,61.70
2018-04-30T00:33:20.653Z,61.73
2018-04-30T00:34:21.175Z,61.70
2018-04-30T00:35:21.601Z,61.70
2018-04-30T00:36:22.068Z,61.84
2018-04-30T00:37:22.541Z,61.89
2018-04-30T00:38:23.014Z,61.87
2018-04-30T00:39:23.485Z,61.94
2018-04-30T00:40:23.957Z,61.89
2018-04-30T00:41:24.430Z,61.89
2018-04-30T00:42:24.904Z,61.89
2018-04-30T00:43:25.372Z,61.85
2018-04-30T00:44:25.843Z,61.91
2018-04-30T00:45:26.314Z,61.94
2018-04-30T00:46:26.788Z,61.85
2018-04-30T00:47:27.255Z,61.88
2018-04-30T00:48:27.725Z,61.85
2018-04-30T00:49:28.196Z,61.82
2018-04-30T00:50:28.667Z,61.93
2018-04-30T00:51:29.137Z,61.92
2018-04-30T00:52:29.607Z,61.81
2018-04-30T00:53:30.081Z,61.81
2018-04-30T00:54:30.549Z,61.87
2018-04-30T00:55:31.021Z,61.84
2018-04-30T00:56:31.488Z,61.78
2018-04-30T00:57:31.966Z,61.64
2018-04-30T00:58:32.430Z,61.67
2018-04-30T00:59:32.950Z,61.80
2018-04-30T01:00:33.369Z,61.89
2018-04-30T01:01:33.841Z,61.97
2018-04-30T01:02:34.311Z,62.05
2018-04-30T01:03:34.820Z,62.05
2018-04-30T01:04:35.252Z,61.96
2018-04-30T01:05:35.724Z,61.93
2018-04-30T01:06:36.195Z,61.93
2018-04-30T01:07:36.666Z,61.82
2018-04-30T01:08:37.135Z,61.76
2018-04-30T01:09:37.660Z,61.81
2018-04-30T01:10:38.079Z,61.76
2018-04-30T01:11:38.550Z,61.67
2018-04-30T01:12:39.022Z,61.67
2018-04-30T01:13:39.492Z,61.70
2018-04-30T01:14:40.021Z,61.67
2018-04-30T01:15:40.437Z,61.64
2018-04-30T01:16:40.908Z,61.67
2018-04-30T01:17:41.380Z,61.72
2018-04-30T01:18:41.853Z,61.67
2018-04-30T01:19:42.324Z,61.66
2018-04-30T01:20:42.796Z,61.67
2018-04-30T01:21:43.318Z,61.80
2018-04-30T01:22:43.741Z,61.80
2018-04-30T01:23:44.214Z,61.77
2018-04-30T01:24:44.687Z,61.86
2018-04-30T01:25:45.160Z,61.71
2018-04-30T01:26:45.634Z,61.79
2018-04-30T01:27:46.105Z,61.82
2018-04-30T01:28:46.578Z,61.82
2018-04-30T01:29:47.051Z,61.88
2018-04-30T01:30:47.529Z,61.93
2018-04-30T01:31:47.999Z,61.82
2018-04-30T01:32:48.472Z,61.82
2018-04-30T01:33:48.946Z,61.81
2018-04-30T01:34:49.418Z,61.87
2018-04-30T01:35:49.891Z,61.84
2018-04-30T01:36:50.704Z,61.83
2018-04-30T01:37:50.839Z,61.81
2018-04-30T01:38:51.312Z,61.75
2018-04-30T01:39:51.789Z,61.77
2018-04-30T01:40:52.263Z,61.72
2018-04-30T01:41:52.733Z,61.69
2018-04-30T01:42:53.207Z,61.63
2018-04-30T01:43:53.681Z,61.60
2018-04-30T01:44:54.205Z,61.65
2018-04-30T01:45:54.629Z,61.57
2018-04-30T01:46:55.104Z,61.62
2018-04-30T01:47:55.577Z,61.56
2018-04-30T01:48:56.055Z,61.65
2018-04-30T01:49:56.525Z,61.64
2018-04-30T01:50:57.001Z,61.62
2018-04-30T01:51:57.475Z,61.64
2018-04-30T01:52:57.949Z,61.86
2018-04-30T01:53:58.427Z,61.80
2018-04-30T01:54:58.897Z,61.85
2018-04-30T01:56:59.846Z,61.83
2018-04-30T01:58:00.319Z,61.93
2018-04-30T01:59:00.793Z,61.88
2018-04-30T02:00:01.268Z,61.85
2018-04-30T02:01:01.743Z,61.99
2018-04-30T02:02:02.214Z,61.96
2018-04-30T02:03:02.690Z,61.98
2018-04-30T02:04:03.160Z,62.20
2018-04-30T02:05:03.634Z,62.15
2018-04-30T02:06:04.105Z,62.17
2018-04-30T02:07:04.581Z,62.17
2018-04-30T02:08:05.053Z,62.20
2018-04-30T02:09:05.522Z,62.28
2018-04-30T02:10:05.997Z,62.19
2018-04-30T02:11:06.466Z,62.19
2018-04-30T02:12:06.940Z,62.19
2018-04-30T02:13:07.410Z,62.14
2018-04-30T02:14:07.885Z,62.19
2018-04-30T02:15:08.353Z,62.27
2018-04-30T02:16:08.822Z,62.29
2018-04-30T02:17:09.295Z,62.26
2018-04-30T02:18:09.765Z,62.21
2018-04-30T02:19:10.233Z,62.23
2018-04-30T02:20:10.705Z,62.26
2018-04-30T02:21:11.211Z,62.37
2018-04-30T02:22:11.644Z,62.31
2018-04-30T02:23:12.114Z,62.25
2018-04-30T02:24:12.586Z,62.34
2018-04-30T02:25:13.057Z,62.55
2018-04-30T02:26:13.525Z,62.42
2018-04-30T02:27:13.995Z,62.33
2018-04-30T02:28:14.466Z,62.39
2018-04-30T02:29:14.938Z,62.33
2018-04-30T02:30:15.407Z,62.22
2018-04-30T02:31:15.880Z,62.30
2018-04-30T02:32:16.347Z,62.21
2018-04-30T02:33:16.818Z,62.16
2018-04-30T02:34:17.288Z,62.07
2018-04-30T02:35:17.809Z,61.90
2018-04-30T02:36:18.228Z,61.90
2018-04-30T02:37:18.699Z,61.96
2018-04-30T02:38:19.171Z,62.07
2018-04-30T02:39:19.640Z,62.18
2018-04-30T02:40:20.113Z,62.12
2018-04-30T02:41:20.584Z,62.15
2018-04-30T02:42:21.056Z,62.06
2018-04-30T02:43:21.525Z,62.09
2018-04-30T02:44:21.999Z,62.09
2018-04-30T02:45:22.466Z,62.11
2018-04-30T02:46:22.941Z,62.25
2018-04-30T02:47:23.410Z,62.16
2018-04-30T02:48:23.882Z,62.08
2018-04-30T02:49:24.354Z,62.02
2018-04-30T02:50:24.827Z,62.05
2018-04-30T02:51:25.298Z,62.16
2018-04-30T02:52:25.769Z,62.02
2018-04-30T02:53:26.240Z,62.21
2018-04-30T03:00:29.597Z,62.35
2018-04-30T03:01:30.019Z,62.43
2018-04-30T03:02:30.492Z,62.53
2018-04-30T03:03:30.965Z,62.53
2018-04-30T03:04:31.444Z,62.53
2018-04-30T03:05:31.911Z,62.48
2018-04-30T03:06:32.383Z,62.50
2018-04-30T03:07:32.856Z,62.48
2018-04-30T03:08:33.329Z,62.61
2018-04-30T03:09:33.805Z,62.67
2018-04-30T03:10:34.325Z,62.55
2018-04-30T03:11:34.749Z,62.56
2018-04-30T03:12:35.562Z,62.69
2018-04-30T03:13:35.698Z,62.67
2018-04-30T03:14:36.175Z,62.61
2018-04-30T03:15:36.641Z,62.74
2018-04-30T03:16:37.191Z,62.72
2018-04-30T03:17:37.590Z,62.72
2018-04-30T03:18:38.064Z,62.71
2018-04-30T03:19:38.574Z,62.80
2018-04-30T03:20:39.011Z,62.69
2018-04-30T03:21:39.482Z,62.66
2018-04-30T03:22:40.297Z,62.80
2018-04-30T03:23:40.432Z,62.74
2018-04-30T03:24:40.904Z,62.82
2018-04-30T03:25:41.378Z,62.88
2018-04-30T03:26:41.850Z,62.71
2018-04-30T03:27:42.325Z,62.76
2018-04-30T03:28:42.799Z,62.73
2018-04-30T03:29:43.275Z,62.85
2018-04-30T03:30:43.746Z,63.04
2018-04-30T03:31:44.221Z,63.04
2018-04-30T03:32:44.701Z,62.87
2018-04-30T03:33:45.167Z,62.90
2018-04-30T03:34:45.645Z,62.98
2018-04-30T03:35:46.119Z,62.95
2018-04-30T03:36:46.593Z,63.03
2018-04-30T03:37:47.405Z,62.95
2018-04-30T03:38:47.537Z,63.06
2018-04-30T03:39:48.353Z,63.19
2018-04-30T03:40:48.492Z,63.28
2018-04-30T03:41:48.961Z,63.17
2018-04-30T03:42:49.435Z,63.28
2018-04-30T03:43:49.910Z,63.36
2018-04-30T03:44:50.384Z,63.30
2018-04-30T03:45:50.857Z,63.25
2018-04-30T03:46:51.333Z,63.22
2018-04-30T03:47:51.806Z,63.27
2018-04-30T03:48:52.282Z,63.39
2018-04-30T03:49:52.752Z,63.35
2018-04-30T03:50:53.233Z,63.46
2018-04-30T03:51:53.701Z,63.38
2018-04-30T03:52:54.515Z,63.30
2018-04-30T03:53:54.645Z,63.49
2018-04-30T03:54:55.120Z,63.41
2018-04-30T03:55:55.594Z,63.40
2018-04-30T03:56:56.065Z,63.41
2018-04-30T03:57:56.573Z,63.46
2018-04-30T03:58:57.008Z,63.40
2018-04-30T03:59:57.479Z,63.51
2018-04-30T04:00:58.292Z,63.46
2018-04-30T04:01:58.426Z,63.48
2018-04-30T04:02:58.900Z,63.60
2018-04-30T04:03:59.364Z,63.48
2018-04-30T04:04:59.837Z,63.59
2018-04-30T04:06:00.305Z,63.62
2018-04-30T04:07:00.776Z,63.67
2018-04-30T04:08:01.587Z,63.73
2018-04-30T04:09:01.724Z,63.81
2018-04-30T04:10:02.187Z,63.72
2018-04-30T04:11:02.659Z,63.73
2018-04-30T04:12:03.129Z,63.75
2018-04-30T04:13:03.597Z,64.04
2018-04-30T04:14:04.068Z,64.05
2018-04-30T04:15:04.538Z,64.24
2018-04-30T04:16:05.061Z,64.18
2018-04-30T04:17:05.479Z,64.29
2018-04-30T04:18:05.954Z,64.51
2018-04-30T04:19:06.419Z,64.62
2018-04-30T04:20:06.889Z,64.73
2018-04-30T04:21:07.360Z,64.83
2018-04-30T04:22:07.829Z,65.00
2018-04-30T04:23:08.300Z,65.05
2018-04-30T04:24:08.770Z,65.00
2018-04-30T04:25:09.240Z,65.18
2018-04-30T04:26:09.713Z,65.61
2018-04-30T04:27:10.181Z,65.61
2018-04-30T04:28:10.652Z,65.77
2018-04-30T04:29:11.123Z,65.68
2018-04-30T04:30:11.593Z,65.68
2018-04-30T04:31:12.116Z,65.85
2018-04-30T04:32:12.536Z,65.98
2018-04-30T04:33:13.007Z,66.14
2018-04-30T04:34:13.481Z,66.27
2018-04-30T04:35:13.950Z,66.25
2018-04-30T04:36:14.420Z,66.20
2018-04-30T04:37:14.891Z,66.33
2018-04-30T04:38:15.363Z,66.54
2018-04-30T04:39:15.839Z,66.54
2018-04-30T04:40:16.307Z,66.86
2018-04-30T04:41:16.818Z,67.04
2018-04-30T04:42:17.250Z,67.28
2018-04-30T04:43:17.724Z,67.41
2018-04-30T04:44:18.195Z,67.70
2018-04-30T04:45:18.668Z,67.75
2018-04-30T04:46:19.138Z,67.68
2018-04-30T04:47:19.649Z,67.81
2018-04-30T04:48:20.083Z,67.78
2018-04-30T04:49:20.556Z,67.78
2018-04-30T04:50:21.031Z,67.96
2018-04-30T04:51:21.552Z,68.02
2018-04-30T04:52:21.976Z,68.36
2018-04-30T04:53:22.447Z,68.30
2018-04-30T04:54:22.923Z,68.17
2018-04-30T04:55:23.391Z,68.15
2018-04-30T04:56:23.865Z,68.17
2018-04-30T04:57:24.339Z,68.25
2018-04-30T04:58:24.811Z,68.48
2018-04-30T04:59:25.285Z,68.80
2018-04-30T05:00:25.756Z,69.01
2018-04-30T05:01:26.281Z,69.25
2018-04-30T05:02:26.823Z,69.24
2018-04-30T05:03:27.178Z,69.32
2018-04-30T05:04:27.651Z,69.42
2018-04-30T05:05:28.123Z,69.66
2018-04-30T05:06:28.635Z,69.81
2018-04-30T05:07:29.070Z,69.86
2018-04-30T05:08:29.544Z,69.86
2018-04-30T05:09:30.021Z,69.81
2018-04-30T05:10:30.528Z,69.94
2018-04-30T05:11:30.965Z,69.91
2018-04-30T05:12:31.438Z,70.01
2018-04-30T05:13:31.912Z,70.19
2018-04-30T05:14:32.423Z,70.29
2018-04-30T05:15:32.861Z,70.35
2018-04-30T05:16:33.385Z,70.47
2018-04-30T05:17:33.809Z,70.42
2018-04-30T05:18:34.621Z,70.45
2018-04-30T05:19:35.096Z,70.54
2018-04-30T05:20:35.228Z,70.68
2018-04-30T05:21:35.703Z,70.73
2018-04-30T05:22:36.176Z,70.78
2018-04-30T05:23:36.651Z,70.81
2018-04-30T05:24:37.124Z,70.73
2018-04-30T05:25:37.604Z,70.75
2018-04-30T05:26:38.074Z,70.87
2018-04-30T05:27:38.547Z,70.93
2018-04-30T05:28:39.020Z,71.11
2018-04-30T05:29:39.496Z,71.08
2018-04-30T05:30:39.969Z,71.05
2018-04-30T05:31:40.494Z,71.18
2018-04-30T05:32:40.918Z,71.31
2018-04-30T05:33:41.396Z,71.38
2018-04-30T05:34:41.904Z,71.38
2018-04-30T05:35:42.339Z,71.28
2018-04-30T05:36:42.868Z,71.43
2018-04-30T05:37:43.288Z,71.28
2018-04-30T05:38:43.761Z,71.20
2018-04-30T05:39:44.314Z,71.38
2018-04-30T05:40:44.709Z,71.56
2018-04-30T05:41:45.577Z,71.55
2018-04-30T05:42:45.655Z,71.38
2018-04-30T05:43:46.132Z,71.35
2018-04-30T05:44:46.606Z,71.45
2018-04-30T05:45:47.074Z,71.43
2018-04-30T05:46:47.546Z,71.32
2018-04-30T05:47:48.023Z,71.33
2018-04-30T05:48:48.491Z,71.35
2018-04-30T05:49:48.964Z,71.34
2018-04-30T05:50:49.434Z,71.60
2018-04-30T05:51:49.956Z,71.43
2018-04-30T05:52:50.377Z,71.40
2018-04-30T05:53:50.887Z,71.42
2018-04-30T05:54:51.661Z,71.49
2018-04-30T05:55:51.790Z,71.37
2018-04-30T05:56:52.311Z,71.55
2018-04-30T05:57:52.731Z,71.70
2018-04-30T05:58:53.200Z,71.77
2018-04-30T05:59:53.670Z,71.83
2018-04-30T06:00:54.141Z,71.62
2018-04-30T06:01:54.616Z,71.77
2018-04-30T06:02:55.081Z,71.77
2018-04-30T06:03:55.555Z,71.72
2018-04-30T06:04:56.023Z,71.72
2018-04-30T06:05:56.491Z,71.87
2018-04-30T06:06:57.012Z,71.89
2018-04-30T06:07:57.432Z,71.97
2018-04-30T06:08:57.901Z,71.84
2018-04-30T06:09:58.372Z,71.95
2018-04-30T06:10:58.841Z,72.18
2018-04-30T06:11:59.655Z,72.15
2018-04-30T06:12:59.783Z,72.13
2018-04-30T06:14:00.253Z,72.18
2018-04-30T06:15:00.721Z,72.08
2018-04-30T06:16:01.193Z,72.01
2018-04-30T06:17:01.664Z,72.08
2018-04-30T06:18:02.137Z,72.21
2018-04-30T06:19:02.606Z,72.16
2018-04-30T06:20:03.078Z,72.34
2018-04-30T06:21:03.547Z,72.65
2018-04-30T06:22:04.068Z,72.60
2018-04-30T06:23:04.489Z,72.50
2018-04-30T06:24:04.959Z,72.35
2018-04-30T06:25:05.432Z,72.43
2018-04-30T06:26:06.244Z,72.31
2018-04-30T06:27:06.376Z,72.46
2018-04-30T06:28:07.186Z,72.44
2018-04-30T06:29:07.355Z,72.42
2018-04-30T06:30:07.791Z,72.53
2018-04-30T06:31:08.299Z,72.61
2018-04-30T06:32:08.734Z,72.41
2018-04-30T06:33:09.206Z,72.47
2018-04-30T06:34:09.684Z,72.35
2018-04-30T06:35:10.150Z,72.35
2018-04-30T06:36:10.625Z,72.33
2018-04-30T06:37:11.151Z,72.21
2018-04-30T06:38:11.570Z,72.16
2018-04-30T06:39:12.041Z,71.94
2018-04-30T06:40:12.515Z,71.82
2018-04-30T06:41:12.990Z,71.73
2018-04-30T06:42:13.512Z,71.60
2018-04-30T06:43:13.934Z,71.58
2018-04-30T06:44:14.411Z,71.69
2018-04-30T06:45:14.881Z,71.80
2018-04-30T06:46:15.356Z,71.47
2018-04-30T06:47:15.878Z,71.20
2018-04-30T06:48:16.302Z,71.00
2018-04-30T06:49:16.777Z,71.01
2018-04-30T06:50:17.249Z,70.91
2018-04-30T06:51:17.727Z,70.81
2018-04-30T06:52:18.199Z,70.63
2018-04-30T06:53:18.672Z,70.64
2018-04-30T06:54:19.145Z,70.67
2018-04-30T06:55:19.619Z,70.83
2018-04-30T06:56:20.094Z,70.73
2018-04-30T06:57:20.569Z,70.66
2018-04-30T06:58:21.080Z,70.67
2018-04-30T06:59:21.860Z,70.57
2018-04-30T07:00:22.007Z,70.37
2018-04-30T07:01:22.467Z,70.24
2018-04-30T07:02:22.942Z,70.09
2018-04-30T07:03:23.416Z,69.99
2018-04-30T07:04:23.891Z,69.94
2018-04-30T07:05:24.365Z,69.79
2018-04-30T07:06:24.841Z,69.64
2018-04-30T07:07:25.313Z,69.41
2018-04-30T07:08:25.788Z,69.20
2018-04-30T07:09:26.410Z,69.02
2018-04-30T07:10:26.740Z,68.89
2018-04-30T07:11:27.210Z,68.74
2018-04-30T07:12:27.687Z,68.53
2018-04-30T07:13:28.161Z,68.28
2018-04-30T07:14:28.631Z,68.12
2018-04-30T07:15:29.104Z,68.02
2018-04-30T07:16:29.577Z,67.92
2018-04-30T07:17:30.105Z,67.89
2018-04-30T07:18:30.523Z,67.79
2018-04-30T07:19:30.996Z,67.75
2018-04-30T07:20:31.468Z,67.51
2018-04-30T07:21:31.941Z,67.44
2018-04-30T07:22:32.412Z,67.28
2018-04-30T07:23:32.882Z,66.97
2018-04-30T07:24:33.354Z,66.90
2018-04-30T07:25:33.828Z,66.87
2018-04-30T07:26:34.296Z,66.88
2018-04-30T07:27:34.854Z,66.75
2018-04-30T07:28:35.239Z,66.60
2018-04-30T07:29:35.716Z,66.50
2018-04-30T07:30:36.182Z,66.45
2018-04-30T07:31:36.651Z,66.38
2018-04-30T07:32:37.172Z,66.36
2018-04-30T07:33:37.594Z,66.35
2018-04-30T07:34:38.066Z,66.33
2018-04-30T07:35:38.535Z,66.20
2018-04-30T07:36:39.006Z,66.00
2018-04-30T07:37:39.477Z,65.82
2018-04-30T07:38:39.948Z,65.67
2018-04-30T07:39:40.420Z,65.52
2018-04-30T07:40:40.890Z,64.96
2018-04-30T07:41:41.362Z,64.86
2018-04-30T07:42:41.883Z,64.82
2018-04-30T07:43:42.304Z,64.66
2018-04-30T07:44:42.776Z,64.51
2018-04-30T07:45:43.250Z,64.44
2018-04-30T07:46:43.721Z,64.21
2018-04-30T07:47:44.246Z,64.06
2018-04-30T07:48:44.664Z,63.93
2018-04-30T07:49:45.137Z,63.72
2018-04-30T07:50:45.608Z,63.59
2018-04-30T07:51:46.081Z,63.41
2018-04-30T07:52:46.555Z,63.34
2018-04-30T07:53:47.027Z,63.30
2018-04-30T07:54:47.503Z,63.26
2018-04-30T07:55:47.972Z,63.02
2018-04-30T07:56:48.447Z,62.81
2018-04-30T07:57:49.260Z,62.54
2018-04-30T07:58:49.394Z,62.47
2018-04-30T07:59:50.207Z,62.28
2018-04-30T08:00:50.340Z,62.15
2018-04-30T08:01:50.821Z,61.91
2018-04-30T08:02:51.289Z,61.81
2018-04-30T08:03:51.763Z,61.65
2018-04-30T08:04:52.237Z,61.41
2018-04-30T08:05:52.712Z,61.30
2018-04-30T08:06:53.187Z,61.14
2018-04-30T08:07:53.661Z,60.95
2018-04-30T08:08:54.136Z,60.70
2018-04-30T08:09:54.691Z,60.51
2018-04-30T08:10:55.087Z,60.20
2018-04-30T08:11:55.560Z,60.18
2018-04-30T08:12:56.036Z,60.16
2018-04-30T08:13:56.852Z,59.96
2018-04-30T08:14:57.033Z,59.71
2018-04-30T08:15:57.461Z,59.55
2018-04-30T08:16:57.938Z,59.50
2018-04-30T08:17:58.412Z,59.27
2018-04-30T08:18:58.887Z,59.16
2018-04-30T08:19:59.361Z,59.08
2018-04-30T08:20:59.874Z,58.83
2018-04-30T08:22:00.312Z,58.95
2018-04-30T08:23:00.824Z,58.98
2018-04-30T08:24:01.261Z,58.69
2018-04-30T08:25:01.735Z,58.35
2018-04-30T08:26:02.211Z,58.21
2018-04-30T08:27:02.684Z,58.10
2018-04-30T08:28:03.158Z,57.84
2018-04-30T08:29:03.633Z,57.64
2018-04-30T08:30:04.107Z,57.56
2018-04-30T08:31:04.582Z,57.59
2018-04-30T08:32:05.052Z,57.51
2018-04-30T08:33:05.529Z,57.40
2018-04-30T08:34:05.996Z,57.29
2018-04-30T08:35:06.471Z,57.12
2018-04-30T08:36:06.943Z,57.21
2018-04-30T08:37:07.413Z,57.04
2018-04-30T08:38:07.886Z,56.95
2018-04-30T08:39:08.357Z,56.61
2018-04-30T08:40:08.829Z,56.76
2018-04-30T08:41:09.302Z,56.50
2018-04-30T08:42:09.777Z,56.56
2018-04-30T08:43:10.244Z,56.36
2018-04-30T08:44:10.714Z,56.19
2018-04-30T08:45:11.197Z,56.26
2018-04-30T08:46:11.659Z,56.24
2018-04-30T08:47:12.129Z,56.25
2018-04-30T08:48:12.600Z,56.08
2018-04-30T08:49:13.071Z,56.06
2018-04-30T08:50:13.542Z,55.75
2018-04-30T08:51:14.017Z,55.44
2018-04-30T08:52:14.523Z,55.01
2018-04-30T08:53:14.958Z,54.70
2018-04-30T08:54:15.430Z,54.30
2018-04-30T08:55:15.901Z,53.78
2018-04-30T08:56:16.372Z,53.25
2018-04-30T08:57:16.845Z,52.69
2018-04-30T08:58:17.316Z,52.59
2018-04-30T08:59:17.789Z,52.30
2018-04-30T09:00:18.654Z,51.65
2018-04-30T09:01:18.733Z,50.99
2018-04-30T09:02:19.206Z,50.76
2018-04-30T09:03:19.682Z,50.28
2018-04-30T09:04:20.151Z,49.77
2018-04-30T09:05:20.625Z,49.93
2018-04-30T09:06:21.100Z,49.88
2018-04-30T09:07:21.572Z,49.67
2018-04-30T09:08:22.050Z,49.65
2018-04-30T09:09:22.518Z,49.38
2018-04-30T09:10:22.991Z,49.55
2018-04-30T09:11:23.467Z,49.34
2018-04-30T09:12:23.942Z,49.07
2018-04-30T09:13:24.414Z,49.07
2018-04-30T09:14:24.889Z,49.29
2018-04-30T09:15:25.364Z,49.32
2018-04-30T09:16:25.838Z,49.14
2018-04-30T09:17:26.653Z,49.08
2018-04-30T09:18:26.792Z,49.39
2018-04-30T09:19:27.264Z,49.51
2018-04-30T09:20:27.738Z,49.30
2018-04-30T09:21:28.213Z,49.02
2018-04-30T09:22:28.688Z,49.24
2018-04-30T09:23:29.167Z,49.03
2018-04-30T09:24:29.644Z,48.72
2018-04-30T09:25:30.115Z,48.75
2018-04-30T09:26:30.590Z,48.81
2018-04-30T09:27:31.070Z,48.97
2018-04-30T09:28:31.541Z,48.85
2018-04-30T09:29:32.015Z,48.63
2018-04-30T09:30:32.492Z,48.41
2018-04-30T09:31:32.968Z,48.85
2018-04-30T09:32:33.440Z,49.01
2018-04-30T09:33:33.915Z,48.73
2018-04-30T09:34:34.393Z,48.61
2018-04-30T09:35:34.871Z,48.55
2018-04-30T09:36:35.339Z,48.58
2018-04-30T09:37:35.815Z,48.52
2018-04-30T09:38:36.287Z,48.71
2018-04-30T09:39:36.762Z,48.68
2018-04-30T09:40:37.234Z,48.62
2018-04-30T09:41:37.744Z,48.41
2018-04-30T09:42:38.185Z,48.01
2018-04-30T09:43:38.705Z,47.85
2018-04-30T09:44:39.127Z,48.01
2018-04-30T09:45:39.600Z,47.92
2018-04-30T09:46:40.074Z,47.86
2018-04-30T09:47:40.548Z,47.48
2018-04-30T09:48:41.017Z,47.51
2018-04-30T09:49:41.489Z,47.70
2018-04-30T09:50:41.963Z,47.58
2018-04-30T09:51:42.434Z,47.58
2018-04-30T09:52:42.905Z,47.70
2018-04-30T09:53:43.430Z,48.20
2018-04-30T09:54:43.849Z,47.98
2018-04-30T09:55:44.324Z,47.98
2018-04-30T09:56:44.794Z,47.64
2018-04-30T09:57:45.722Z,48.10
2018-04-30T09:58:45.737Z,48.07
2018-04-30T09:59:46.213Z,47.95
2018-04-30T10:00:47.019Z,48.19
2018-04-30T10:01:47.150Z,48.32
2018-04-30T10:02:47.623Z,48.16
2018-04-30T10:03:48.095Z,48.00
2018-04-30T10:04:48.566Z,48.07
2018-04-30T10:05:49.038Z,47.97
2018-04-30T10:06:49.512Z,48.25
2018-04-30T10:07:49.985Z,48.41
2018-04-30T10:08:50.454Z,48.56
2018-04-30T10:09:50.928Z,48.34
2018-04-30T10:10:51.399Z,48.25
2018-04-30T10:11:51.873Z,48.28
2018-04-30T10:12:52.347Z,48.46
2018-04-30T10:13:52.823Z,48.34
2018-04-30T10:14:53.292Z,48.37
2018-04-30T10:15:53.768Z,48.40
2018-04-30T10:16:54.241Z,48.22
2018-04-30T10:17:54.712Z,47.97
2018-04-30T10:18:55.185Z,48.19
2018-04-30T10:19:55.660Z,48.00
2018-04-30T10:20:56.135Z,47.78
2018-04-30T10:21:56.607Z,48.06
2018-04-30T10:22:57.085Z,47.91
2018-04-30T10:23:57.612Z,48.22
2018-04-30T10:24:58.032Z,48.44
2018-04-30T10:25:58.510Z,48.19
2018-04-30T10:26:58.984Z,48.41
2018-04-30T10:27:59.461Z,48.50
2018-04-30T10:29:00.004Z,48.51
2018-04-30T10:30:00.412Z,48.26
2018-04-30T10:31:00.890Z,48.38
2018-04-30T10:32:01.363Z,48.17
2018-04-30T10:33:01.838Z,48.29
2018-04-30T10:34:02.365Z,48.14
2018-04-30T10:35:02.789Z,48.14
2018-04-30T10:36:03.268Z,48.61
2018-04-30T10:37:03.944Z,48.27
2018-04-30T10:38:04.226Z,47.99
2018-04-30T10:39:04.692Z,47.55
2018-04-30T10:40:05.168Z,47.77
2018-04-30T10:41:05.644Z,47.99
2018-04-30T10:42:06.119Z,47.84
2018-04-30T10:43:06.597Z,47.84
2018-04-30T10:44:07.068Z,48.27
2018-04-30T10:45:07.547Z,48.18
2018-04-30T10:46:08.130Z,47.99
2018-04-30T10:47:08.491Z,47.99
2018-04-30T10:48:08.966Z,47.78
2018-04-30T10:49:09.442Z,48.09
2018-04-30T10:50:09.914Z,48.09
2018-04-30T10:51:10.388Z,48.28
2018-04-30T10:52:10.859Z,48.47
2018-04-30T10:53:11.335Z,48.00
2018-04-30T10:54:11.807Z,48.19
2018-04-30T10:55:12.279Z,48.34
2018-04-30T10:56:12.752Z,48.43
2018-04-30T10:57:13.226Z,48.56
2018-04-30T10:58:13.700Z,48.50
2018-04-30T10:59:14.223Z,48.37
2018-04-30T11:00:14.645Z,48.68
2018-04-30T11:01:15.117Z,48.78
2018-04-30T11:02:15.588Z,48.87
2018-04-30T11:03:16.060Z,49.15
2018-04-30T11:04:16.582Z,49.37
2018-04-30T11:05:17.004Z,49.15
2018-04-30T11:06:17.475Z,49.06
2018-04-30T11:07:17.946Z,49.18
2018-04-30T11:08:18.419Z,48.94
2018-04-30T11:10:19.365Z,48.29
2018-04-30T11:11:19.833Z,48.16
2018-04-30T11:12:20.387Z,48.85
2018-04-30T11:13:20.776Z,48.91
2018-04-30T11:14:21.248Z,48.73
2018-04-30T11:15:21.721Z,48.85
2018-04-30T11:16:22.192Z,49.03
2018-04-30T11:17:22.664Z,49.28
2018-04-30T11:18:23.139Z,49.19
2018-04-30T11:19:23.611Z,48.91
2018-04-30T11:20:24.082Z,48.85
2018-04-30T11:21:24.556Z,48.91
2018-04-30T11:22:25.028Z,48.97
2018-04-30T11:23:25.499Z,48.97
2018-04-30T11:24:26.024Z,48.85
2018-04-30T11:25:26.447Z,49.07
2018-04-30T11:26:26.920Z,49.41
2018-04-30T11:27:27.394Z,49.38
2018-04-30T11:28:27.867Z,49.35
2018-04-30T11:29:28.340Z,49.72
2018-04-30T11:30:28.815Z,49.84
2018-04-30T11:31:29.289Z,49.72
2018-04-30T11:32:29.763Z,49.85
2018-04-30T11:33:30.240Z,50.00
2018-04-30T11:34:30.764Z,49.88
2018-04-30T11:35:31.189Z,49.67
2018-04-30T11:36:31.662Z,49.73
2018-04-30T11:37:32.139Z,49.85
2018-04-30T11:38:32.613Z,49.92
2018-04-30T11:39:33.089Z,50.16
2018-04-30T11:40:33.564Z,50.41
2018-04-30T11:41:34.040Z,50.47
2018-04-30T11:42:34.536Z,50.38
2018-04-30T11:43:34.991Z,50.51
2018-04-30T11:44:35.467Z,50.45
2018-04-30T11:45:35.943Z,50.08
2018-04-30T11:46:36.418Z,50.36
2018-04-30T11:47:36.897Z,50.61
2018-04-30T11:48:37.370Z,50.95
2018-04-30T11:49:37.843Z,51.01
2018-04-30T11:50:38.317Z,50.86
2018-04-30T11:51:38.795Z,50.92
2018-04-30T11:52:39.271Z,51.11
2018-04-30T11:53:39.745Z,51.17
2018-04-30T11:54:40.221Z,51.14
2018-04-30T11:55:40.694Z,51.02
2018-04-30T11:56:41.169Z,51.21
2018-04-30T11:57:41.643Z,51.37
2018-04-30T11:58:42.147Z,51.43
2018-04-30T11:59:42.591Z,51.46
2018-04-30T12:00:43.269Z,51.49
2018-04-30T12:01:43.538Z,51.59
2018-04-30T12:02:44.012Z,51.65
2018-04-30T12:03:44.486Z,51.71
2018-04-30T12:04:44.960Z,51.69
2018-04-30T12:05:45.434Z,51.81
2018-04-30T12:06:45.907Z,51.81
2018-04-30T12:07:46.381Z,51.94
2018-04-30T12:08:46.852Z,51.85
2018-04-30T12:09:47.324Z,51.82
2018-04-30T12:10:47.798Z,51.82
2018-04-30T12:12:48.744Z,51.89
2018-04-30T12:13:49.213Z,51.89
2018-04-30T12:14:49.686Z,51.86
2018-04-30T12:15:50.159Z,51.81
2018-04-30T12:16:50.630Z,51.75
2018-04-30T12:17:51.126Z,51.72
2018-04-30T12:18:51.576Z,51.66
2018-04-30T12:19:52.043Z,51.70
2018-04-30T12:20:52.517Z,51.70
2018-04-30T12:21:52.994Z,51.52
2018-04-30T12:22:53.459Z,51.52
2018-04-30T12:23:53.933Z,51.52
2018-04-30T12:24:54.407Z,51.59
2018-04-30T12:25:54.876Z,51.62
2018-04-30T12:26:55.349Z,51.65
2018-04-30T12:27:55.821Z,51.72
2018-04-30T12:28:56.294Z,51.81
2018-04-30T12:29:56.765Z,51.82
2018-04-30T12:30:57.239Z,51.82
2018-04-30T12:31:57.713Z,51.94
2018-04-30T12:32:58.187Z,51.98
2018-04-30T12:33:58.658Z,51.98
2018-04-30T12:34:59.131Z,52.04
2018-04-30T12:35:59.637Z,52.02
2018-04-30T12:37:00.080Z,51.99
2018-04-30T12:38:00.892Z,52.02
2018-04-30T12:39:01.027Z,52.02
2018-04-30T12:40:01.503Z,52.09
2018-04-30T12:41:01.977Z,52.21
2018-04-30T12:42:02.451Z,52.19
2018-04-30T12:43:02.925Z,51.82
2018-04-30T12:44:03.399Z,51.73
2018-04-30T12:45:03.875Z,51.68
2018-04-30T12:46:04.354Z,51.50
2018-04-30T12:47:04.827Z,51.62
2018-04-30T12:48:05.304Z,51.75
2018-04-30T12:49:05.779Z,51.69
2018-04-30T12:50:06.255Z,51.69
2018-04-30T12:51:06.729Z,51.66
2018-04-30T12:52:07.208Z,51.57
2018-04-30T12:53:07.681Z,51.57
2018-04-30T12:54:08.156Z,51.58
2018-04-30T12:55:08.632Z,51.55
2018-04-30T12:56:09.110Z,51.58
2018-04-30T12:57:09.584Z,51.61
2018-04-30T12:58:10.059Z,51.65
2018-04-30T12:59:10.537Z,51.59
2018-04-30T13:00:11.063Z,51.50
2018-04-30T13:01:11.487Z,51.66
2018-04-30T13:02:11.962Z,51.69
2018-04-30T13:03:12.438Z,51.72
2018-04-30T13:04:12.916Z,51.70
2018-04-30T13:05:13.390Z,51.70
2018-04-30T13:06:13.864Z,51.55
2018-04-30T13:07:14.338Z,51.46